Time;durP1;ratioP1;P1;durP2;ratioP2;P2;SDS_P1;SDS_P2;PMS_P1;PMS_P2;Temp;Humidity;BMP_temperature;BMP_pressure;BME280_temperature;BME280_humidity;BME280_pressure;Samples;Min_cycle;Max_cycle;Signal;HPM_P1;HPM_P2
2022/02/01 00:01:28;;;;;;;9.40;5.47;;;;;;;3.32;100.00;99215.63;5073298;28;20037;-72
2022/02/01 00:04:01;;;;;;;11.30;5.40;;;;;;;3.32;100.00;99215.63;5073465;28;20048;-72
2022/02/01 00:06:43;;;;;;;9.35;4.68;;;;;;;3.31;100.00;99216.56;5073574;28;20094;-70
2022/02/01 00:09:21;;;;;;;11.75;5.05;;;;;;;3.36;100.00;99219.81;5073587;28;20041;-71
2022/02/01 00:12:02;;;;;;;11.43;5.00;;;;;;;3.37;100.00;99211.81;5073303;28;20115;-71
2022/02/01 00:14:38;;;;;;;11.18;5.05;;;;;;;3.37;100.00;99213.63;5073363;28;20405;-71
2022/02/01 00:18:00;;;;;;;8.90;5.03;;;;;;;3.28;100.00;99206.13;5073631;28;20071;-71
2022/02/01 00:33:04;;;;;;;12.15;5.13;;;;;;;3.30;100.00;99210.44;5073486;28;20051;-71
2022/02/01 00:34:54;;;;;;;9.35;5.47;;;;;;;3.35;100.00;99226.88;5072897;28;20066;-71
2022/02/01 00:37:23;;;;;;;12.13;5.50;;;;;;;3.34;100.00;99217.25;5072992;28;20041;-71
2022/02/01 00:39:57;;;;;;;12.02;5.95;;;;;;;3.31;100.00;99220.03;5072922;28;20478;-71
2022/02/01 00:42:25;;;;;;;;;;;;;;;3.24;100.00;99208.06;5073822;28;20072;-71
2022/02/01 00:44:53;;;;;;;11.18;5.40;;;;;;;3.20;100.00;99211.78;5072574;28;20365;-71
2022/02/01 00:47:24;;;;;;;10.65;5.32;;;;;;;3.12;100.00;99213.91;5073044;28;20470;-71
2022/02/01 00:49:54;;;;;;;10.80;5.90;;;;;;;3.23;100.00;99222.19;5071444;28;20049;-71
2022/02/01 00:52:23;;;;;;;9.55;5.25;;;;;;;3.37;100.00;99217.09;5073150;28;20036;-71
2022/02/01 00:54:53;;;;;;;11.13;5.15;;;;;;;3.34;100.00;99211.97;5072743;28;20047;-71
2022/02/01 00:57:21;;;;;;;13.55;6.32;;;;;;;3.27;100.00;99226.38;5072788;28;20036;-71
2022/02/01 00:59:50;;;;;;;13.13;6.05;;;;;;;3.25;100.00;99215.06;5072679;28;20053;-71
2022/02/01 01:02:18;;;;;;;11.43;5.43;;;;;;;3.22;100.00;99217.84;5072643;28;20127;-71
2022/02/01 01:04:49;;;;;;;12.90;5.85;;;;;;;3.13;100.00;99216.47;5072800;28;20041;-71
2022/02/01 01:07:18;;;;;;;13.90;6.85;;;;;;;3.05;100.00;99221.25;5072844;28;20430;-71
2022/02/01 01:09:47;;;;;;;10.50;6.40;;;;;;;3.15;100.00;99234.84;5072612;28;20042;-71
2022/02/01 01:12:17;;;;;;;12.40;6.22;;;;;;;3.09;100.00;99224.63;5072836;28;20539;-71
2022/02/01 01:46:02;;;;;;;11.80;6.63;;;;;;;2.71;100.00;99198.22;5075054;28;20102;-71
2022/02/01 01:54:11;;;;;;;15.68;7.05;;;;;;;2.72;100.00;99205.19;5051494;28;20068;-71
2022/02/01 01:56:41;;;;;;;13.18;7.55;;;;;;;2.65;100.00;99203.75;5075957;28;20489;-71
2022/02/01 01:59:13;;;;;;;16.85;7.57;;;;;;;2.65;100.00;99203.75;5076052;28;20470;-71
2022/02/01 02:01:43;;;;;;;15.15;7.68;;;;;;;2.56;100.00;99207.66;5075718;28;20054;-71
2022/02/01 02:04:11;;;;;;;16.25;7.68;;;;;;;2.52;100.00;99210.50;5076069;28;20075;-71
2022/02/01 02:06:39;;;;;;;16.20;8.65;;;;;;;2.46;100.00;99213.38;5075461;28;20048;-71
2022/02/01 02:09:11;;;;;;;15.85;7.97;;;;;;;2.44;100.00;99225.78;5075149;28;20119;-71
2022/02/01 02:11:46;;;;;;;16.98;8.23;;;;;;;2.43;100.00;99226.69;5075776;28;20048;-71
2022/02/01 02:14:18;;;;;;;17.27;8.38;;;;;;;2.36;100.00;99230.50;5075436;28;20041;-71
2022/02/01 02:16:49;;;;;;;16.88;8.40;;;;;;;2.33;100.00;99222.75;5075515;28;20041;-76
2022/02/01 02:19:19;;;;;;;14.95;8.05;;;;;;;2.37;100.00;99226.94;5075634;28;20044;-71
2022/02/01 02:21:53;;;;;;;15.85;7.68;;;;;;;2.42;100.00;99215.31;5075275;28;20063;-72
2022/02/01 02:24:23;;;;;;;17.38;8.38;;;;;;;2.40;100.00;99226.81;5075430;28;20127;-71
2022/02/01 02:26:52;;;;;;;18.35;8.32;;;;;;;2.41;100.00;99226.72;5074855;28;20072;-71
2022/02/01 02:29:20;;;;;;;19.63;8.25;;;;;;;2.45;100.00;99217.81;5075298;28;20044;-71
2022/02/01 02:31:49;;;;;;;14.15;8.07;;;;;;;2.44;100.00;99215.25;5074995;28;20508;-72
2022/02/01 02:34:18;;;;;;;17.25;8.00;;;;;;;2.39;100.00;99217.19;5075106;28;20051;-71
2022/02/01 02:36:52;;;;;;;15.27;7.68;;;;;;;2.47;100.00;99223.00;5075319;28;20072;-71
2022/02/01 02:39:31;;;;;;;11.75;7.40;;;;;;;2.42;100.00;99230.25;5075264;28;20131;-71
2022/02/01 02:42:10;;;;;;;14.63;7.60;;;;;;;2.36;100.00;99227.88;5074890;28;20098;-71
2022/02/01 02:47:30;;;;;;;12.35;6.80;;;;;;;2.32;100.00;99235.06;5074930;28;20044;-71
2022/02/01 02:50:01;;;;;;;13.55;7.75;;;;;;;2.30;100.00;99240.34;5074806;28;20040;-71
2022/02/01 02:52:29;;;;;;;14.55;7.47;;;;;;;2.35;100.00;99236.69;5075158;28;20466;-71
2022/02/01 02:54:59;;;;;;;15.55;8.18;;;;;;;2.30;100.00;99239.50;5074611;28;20389;-71
2022/02/01 02:57:28;;;;;;;15.32;8.30;;;;;;;2.28;100.00;99238.72;5074767;28;20130;-71
2022/02/01 02:59:57;;;;;;;13.35;7.57;;;;;;;2.40;100.00;99245.22;5074787;28;20065;-71
2022/02/01 03:02:25;;;;;;;15.07;7.88;;;;;;;2.28;100.00;99252.72;5075610;28;20047;-71
2022/02/01 03:04:54;;;;;;;14.80;8.32;;;;;;;2.33;100.00;99255.19;5074090;28;20040;-72
2022/02/01 03:07:22;;;;;;;15.25;8.25;;;;;;;2.28;100.00;99263.25;5074437;28;20077;-71
2022/02/01 03:09:50;;;;;;;14.60;8.10;;;;;;;2.50;100.00;99264.97;5073940;28;20046;-75
2022/02/01 03:12:34;;;;;;;14.57;7.90;;;;;;;2.53;100.00;99262.22;5074438;28;20124;-71
2022/02/01 03:15:23;;;;;;;17.92;8.20;;;;;;;2.50;100.00;99264.97;5074347;28;20052;-71
2022/02/01 03:20:37;;;;;;;15.25;8.80;;;;;;;2.22;100.00;99279.31;5074054;28;20040;-71
2022/02/01 03:23:05;;;;;;;15.80;9.10;;;;;;;2.41;100.00;99286.41;5074209;28;20052;-71
2022/02/01 03:25:33;;;;;;;13.68;7.70;;;;;;;2.44;100.00;99279.25;5073978;28;20068;-71
2022/02/01 03:28:03;;;;;;;15.40;8.02;;;;;;;2.48;100.00;99290.50;5073861;28;20598;-72
2022/02/01 03:30:32;;;;;;;15.80;8.43;;;;;;;2.65;100.00;99290.66;5074342;28;20048;-71
2022/02/01 03:33:01;;;;;;;15.25;8.35;;;;;;;2.53;100.00;99291.19;5074076;28;20047;-72
2022/02/01 03:35:29;;;;;;;18.98;8.57;;;;;;;2.59;100.00;99288.25;5074040;28;20044;-71
2022/02/01 03:37:58;;;;;;;15.75;8.82;;;;;;;2.44;100.00;99292.41;5073479;28;20132;-72
2022/02/01 03:40:26;;;;;;;13.63;8.35;;;;;;;2.48;100.00;99301.03;5073901;28;20393;-71
2022/02/01 03:42:56;;;;;;;15.07;8.20;;;;;;;2.43;100.00;99306.50;5072513;28;20086;-71
2022/02/01 03:45:26;;;;;;;19.60;8.75;;;;;;;2.39;100.00;99301.41;5073924;28;20047;-71
2022/02/01 03:47:54;;;;;;;15.63;8.77;;;;;;;2.38;100.00;99299.72;5073584;28;20470;-72
2022/02/01 03:50:23;;;;;;;15.25;8.77;;;;;;;2.39;100.00;99297.00;5073718;28;20041;-71
2022/02/01 03:52:54;;;;;;;16.15;8.50;;;;;;;2.63;100.00;99291.66;5073462;28;20488;-71
2022/02/01 03:55:22;;;;;;;15.38;8.70;;;;;;;2.40;100.00;99303.13;5073541;28;20041;-71
2022/02/01 03:57:50;;;;;;;16.42;9.07;;;;;;;2.15;100.00;99304.16;5073715;28;20388;-71
2022/02/01 04:00:18;;;;;;;17.73;9.38;;;;;;;2.34;100.00;99306.03;5073601;28;20402;-71
2022/02/01 04:02:48;;;;;;;14.52;9.02;;;;;;;2.42;100.00;99301.31;5073830;28;20123;-71
2022/02/01 04:05:16;;;;;;;17.70;9.80;;;;;;;2.37;100.00;99306.75;5073247;28;20051;-71
2022/02/01 04:07:47;;;;;;;15.70;9.75;;;;;;;2.37;100.00;99305.91;5073460;28;20383;-71
2022/02/01 04:10:20;;;;;;;16.98;9.93;;;;;;;2.30;100.00;99311.41;5073261;28;20094;-71
2022/02/01 04:12:50;;;;;;;16.25;9.45;;;;;;;2.42;100.00;99317.09;5073630;28;20044;-71
2022/02/01 04:15:20;;;;;;;17.75;9.15;;;;;;;2.46;100.00;99313.41;5073086;28;20051;-71
2022/02/01 04:17:50;;;;;;;16.10;9.10;;;;;;;2.30;100.00;99314.03;5073382;28;20044;-71
2022/02/01 04:20:19;;;;;;;16.65;9.63;;;;;;;2.34;100.00;99316.56;5073444;28;20040;-71
2022/02/01 04:22:47;;;;;;;18.08;9.35;;;;;;;2.42;100.00;99317.97;5073357;28;20056;-71
2022/02/01 04:25:15;;;;;;;18.55;10.15;;;;;;;2.35;100.00;99319.13;5073136;28;20052;-71
2022/02/01 04:27:43;;;;;;;16.35;9.70;;;;;;;2.33;100.00;99323.59;5073275;28;20048;-72
2022/02/01 04:30:15;;;;;;;18.75;10.07;;;;;;;2.40;100.00;99332.94;5072970;28;20064;-70
2022/02/01 04:32:45;;;;;;;21.67;10.13;;;;;;;2.42;100.00;99332.91;5073041;28;20052;-71
2022/02/01 04:35:18;;;;;;;19.67;10.73;;;;;;;2.32;100.00;99331.53;5072885;28;20515;-71
2022/02/01 04:37:46;;;;;;;;;;;;;;;2.22;100.00;99339.84;5073371;28;20378;-72
2022/02/01 04:40:17;;;;;;;17.75;10.25;;;;;;;2.11;100.00;99338.53;5072934;28;19928;-72
2022/02/01 04:42:46;;;;;;;16.35;9.93;;;;;;;2.13;100.00;99340.22;5072968;28;20047;-70
2022/02/01 04:45:16;;;;;;;18.45;9.93;;;;;;;1.98;100.00;99344.28;5072809;28;20098;-72
2022/02/01 04:47:46;;;;;;;16.55;9.77;;;;;;;2.01;100.00;99354.69;5073343;28;20036;-71
2022/02/01 04:50:19;;;;;;;16.67;10.10;;;;;;;2.09;100.00;99364.91;5072693;28;20094;-72
2022/02/01 04:52:51;;;;;;;17.92;10.43;;;;;;;1.96;100.00;99367.16;5072951;28;20041;-70
2022/02/01 04:55:21;;;;;;;21.25;10.07;;;;;;;1.97;100.00;99373.28;5072991;28;20106;-71
2022/02/01 04:57:56;;;;;;;19.95;11.23;;;;;;;2.03;100.00;99370.44;5073124;28;20094;-71
2022/02/01 05:00:26;;;;;;;21.08;11.75;;;;;;;2.13;100.00;99376.19;5073083;28;20048;-71
2022/02/01 05:02:55;;;;;;;24.20;12.45;;;;;;;2.12;100.00;99364.78;5073348;28;20127;-71
2022/02/01 05:05:28;;;;;;;23.00;12.45;;;;;;;2.04;100.00;99377.41;5073523;28;20048;-71
2022/02/01 05:08:01;;;;;;;18.77;11.00;;;;;;;1.91;100.00;99381.41;5076775;28;20047;-71
2022/02/01 05:10:32;;;;;;;20.23;11.05;;;;;;;1.85;100.00;99379.03;5076931;28;20078;-71
2022/02/01 05:13:22;;;;;;;19.30;10.80;;;;;;;1.93;100.00;99387.47;5076592;28;20041;-72
2022/02/01 05:15:59;;;;;;;16.90;9.75;;;;;;;2.06;100.00;99386.09;5076711;28;20447;-71
2022/02/01 05:18:29;;;;;;;18.27;10.85;;;;;;;1.97;100.00;99389.91;5076467;28;20040;-71
2022/02/01 05:21:07;;;;;;;18.02;10.00;;;;;;;2.05;100.00;99400.16;5076641;28;20130;-71
2022/02/01 05:23:35;;;;;;;20.60;11.43;;;;;;;2.03;100.00;99409.00;5076625;28;20370;-71
2022/02/01 05:26:04;;;;;;;19.17;10.65;;;;;;;2.04;100.00;99410.75;5076215;28;20052;-72
2022/02/01 05:28:34;;;;;;;17.17;10.32;;;;;;;2.15;100.00;99413.81;5076362;28;20452;-72
2022/02/01 05:31:03;;;;;;;18.50;10.07;;;;;;;2.10;100.00;99424.50;5076208;28;20128;-70
2022/02/01 05:33:32;;;;;;;19.30;10.00;;;;;;;2.03;100.00;99425.66;5076283;28;20040;-71
2022/02/01 05:36:05;;;;;;;18.73;10.57;;;;;;;2.15;100.00;99424.31;5076529;28;20056;-76
2022/02/01 05:38:34;;;;;;;19.73;11.00;;;;;;;1.92;100.00;99422.56;5076356;28;20432;-71
2022/02/01 05:41:03;;;;;;;21.55;10.73;;;;;;;1.98;100.00;99431.09;5075905;28;20289;-72
2022/02/01 05:43:31;;;;;;;17.30;10.57;;;;;;;1.99;100.00;99439.84;5076099;28;20068;-72
2022/02/01 05:46:00;;;;;;;21.50;11.30;;;;;;;2.06;100.00;99443.94;5076145;28;20052;-71
2022/02/01 05:48:29;;;;;;;21.77;11.45;;;;;;;2.00;100.00;99458.19;5076269;28;20044;-70
2022/02/01 05:51:00;;;;;;;19.23;11.63;;;;;;;2.10;100.00;99458.69;5075814;28;20049;-71
2022/02/01 05:53:29;;;;;;;21.85;11.50;;;;;;;1.96;100.00;99471.53;5075776;28;20040;-71
2022/02/01 05:55:57;;;;;;;23.48;12.07;;;;;;;1.98;100.00;99474.94;5075945;28;20048;-71
2022/02/01 05:58:26;;;;;;;19.73;12.07;;;;;;;2.11;100.00;99483.22;5075480;28;20120;-70
2022/02/01 06:00:55;;;;;;;21.65;12.00;;;;;;;2.15;100.00;99474.31;5075776;28;20067;-71
2022/02/01 06:03:24;;;;;;;22.25;12.50;;;;;;;1.96;100.00;99487.31;5075790;28;20045;-71
2022/02/01 06:05:52;;;;;;;21.83;12.38;;;;;;;1.96;100.00;99497.81;5075514;28;20048;-71
2022/02/01 06:08:20;;;;;;;23.58;12.45;;;;;;;2.05;100.00;99502.75;5075333;28;20536;-72
2022/02/01 06:10:50;;;;;;;24.00;12.63;;;;;;;2.05;100.00;99502.75;5075566;28;20044;-72
2022/02/01 06:13:18;;;;;;;21.75;11.88;;;;;;;1.91;100.00;99513.75;5075253;28;20048;-72
2022/02/01 06:15:46;;;;;;;24.50;12.68;;;;;;;1.71;100.00;99514.47;5075436;28;20037;-70
2022/02/01 06:18:14;;;;;;;23.00;12.20;;;;;;;1.82;100.00;99513.25;5075103;28;20413;-70
2022/02/01 06:20:43;;;;;;;20.10;12.20;;;;;;;1.80;100.00;99522.97;5075413;28;20493;-71
2022/02/01 06:23:14;;;;;;;20.23;11.73;;;;;;;1.68;100.00;99530.38;5075137;28;20436;-71
2022/02/01 06:25:50;;;;;;;26.20;12.93;;;;;;;1.67;100.00;99541.81;5075459;28;20098;-71
2022/02/01 06:28:22;;;;;;;24.08;12.10;;;;;;;1.84;100.00;99546.47;5075178;28;20037;-71
2022/02/01 06:30:52;;;;;;;22.48;12.10;;;;;;;1.76;100.00;99552.91;5075148;28;20374;-72
2022/02/01 06:33:21;;;;;;;23.35;12.27;;;;;;;1.80;100.00;99552.75;5074538;28;20040;-70
2022/02/01 06:35:49;;;;;;;23.08;13.15;;;;;;;1.76;100.00;99563.44;5074740;28;20494;-71
2022/02/01 06:38:18;;;;;;;23.15;12.32;;;;;;;1.71;100.00;99559.19;5075111;28;20044;-72
2022/02/01 06:40:50;;;;;;;21.13;12.38;;;;;;;1.80;100.00;99565.03;5074722;28;20051;-70
2022/02/01 06:43:21;;;;;;;25.67;12.98;;;;;;;1.71;100.00;99577.59;5074774;28;20044;-71
2022/02/01 06:45:49;;;;;;;23.42;12.82;;;;;;;1.67;100.00;99581.25;5074700;28;20102;-71
2022/02/01 06:48:19;;;;;;;24.13;12.73;;;;;;;1.54;100.00;99584.31;5074610;28;20124;-71
2022/02/01 06:50:48;;;;;;;24.13;12.75;;;;;;;1.56;100.00;99588.66;5074731;28;20044;-71
2022/02/01 06:53:18;;;;;;;20.05;11.93;;;;;;;1.68;100.00;99590.84;5074060;28;20065;-71
2022/02/01 06:55:58;;;;;;;23.13;12.95;;;;;;;1.64;100.00;99593.63;5074439;28;20119;-71
2022/02/01 06:58:28;;;;;;;24.95;13.82;;;;;;;1.78;100.00;99599.28;5074583;28;20063;-71
2022/02/01 07:00:56;;;;;;;22.08;12.07;;;;;;;1.77;100.00;99601.97;5074382;28;20047;-72
2022/02/01 07:03:25;;;;;;;22.40;12.32;;;;;;;1.73;100.00;99603.81;5074269;28;20051;-72
2022/02/01 07:05:54;;;;;;;21.90;13.18;;;;;;;1.91;100.00;99615.47;5074119;28;20486;-71
2022/02/01 07:08:24;;;;;;;22.00;12.63;;;;;;;1.88;100.00;99605.06;5074224;28;20084;-72
2022/02/01 07:10:52;;;;;;;22.77;12.27;;;;;;;1.97;100.00;99620.53;5074035;28;20040;-72
2022/02/01 07:13:20;;;;;;;25.33;14.00;;;;;;;2.04;100.00;99627.31;5073947;28;20487;-71
2022/02/01 07:15:50;;;;;;;21.27;12.25;;;;;;;2.02;100.00;99626.47;5074114;28;20052;-71
2022/02/01 07:18:19;;;;;;;25.02;14.02;;;;;;;1.98;100.00;99632.78;5073830;28;20037;-71
2022/02/01 07:20:48;;;;;;;22.75;12.85;;;;;;;2.02;100.00;99631.72;5074203;28;20068;-71
2022/02/01 07:23:22;;;;;;;25.17;13.10;;;;;;;1.94;100.00;99636.44;5074063;28;20124;-72
2022/02/01 07:25:51;;;;;;;23.20;13.48;;;;;;;1.98;100.00;99648.56;5073858;28;20044;-71
2022/02/01 07:28:21;;;;;;;24.30;13.93;;;;;;;1.95;100.00;99646.03;5072678;28;20041;-71
2022/02/01 07:30:51;;;;;;;25.17;13.60;;;;;;;2.01;100.00;99661.59;5073719;28;20109;-71
2022/02/01 07:33:19;;;;;;;28.60;14.45;;;;;;;2.07;100.00;99660.53;5073706;28;20040;-71
2022/02/01 07:35:49;;;;;;;25.33;13.50;;;;;;;2.07;100.00;99655.28;5074075;28;20079;-71
2022/02/01 07:38:21;;;;;;;26.42;15.02;;;;;;;2.10;100.00;99652.53;5073735;28;20074;-71
2022/02/01 07:40:51;;;;;;;23.65;13.50;;;;;;;2.18;100.00;99655.75;5073939;28;20040;-71
2022/02/01 07:43:24;;;;;;;27.88;13.65;;;;;;;2.13;100.00;99658.56;5073769;28;20045;-71
2022/02/01 07:45:54;;;;;;;22.40;12.23;;;;;;;2.05;100.00;99671.09;5073866;28;20044;-71
2022/02/01 07:48:22;;;;;;;24.55;12.90;;;;;;;2.15;100.00;99677.78;5073396;28;20106;-71
2022/02/01 07:50:53;;;;;;;25.23;13.25;;;;;;;2.29;100.00;99672.00;5073363;28;20496;-71
2022/02/01 07:53:22;;;;;;;26.70;13.57;;;;;;;2.47;100.00;99673.13;5073308;28;20041;-70
2022/02/01 07:55:50;;;;;;;22.70;12.48;;;;;;;2.35;100.00;99676.19;5073606;28;20040;-70
2022/02/01 07:58:18;;;;;;;22.90;12.18;;;;;;;2.39;100.00;99675.16;5073425;28;20101;-70
2022/02/01 08:00:47;;;;;;;25.00;13.07;;;;;;;2.37;100.00;99683.13;5073507;28;20477;-71
2022/02/01 08:03:16;;;;;;;22.10;12.52;;;;;;;2.40;100.00;99692.69;5073470;28;20098;-72
2022/02/01 08:05:45;;;;;;;21.77;13.25;;;;;;;2.43;100.00;99692.59;5073461;28;20040;-71
2022/02/01 08:08:14;;;;;;;25.38;12.32;;;;;;;2.60;100.00;99692.81;5073411;28;20036;-71
2022/02/01 08:10:43;;;;;;;22.83;12.13;;;;;;;2.72;100.00;99700.28;5073024;28;20043;-71
2022/02/01 08:16:31;;;;;;;24.20;13.23;;;;;;;2.62;100.00;99696.28;5073468;28;20044;-71
2022/02/01 08:19:11;;;;;;;24.05;12.45;;;;;;;2.69;100.00;99705.66;5073436;28;20124;-70
2022/02/01 08:21:52;;;;;;;24.40;13.52;;;;;;;2.75;100.00;99704.56;5073419;28;20083;-70
2022/02/01 08:24:20;;;;;;;26.67;13.95;;;;;;;2.78;100.00;99713.22;5072717;28;20554;-72
2022/02/01 08:26:48;;;;;;;27.10;13.50;;;;;;;2.87;100.00;99717.28;5073160;28;20043;-70
2022/02/01 08:29:17;;;;;;;22.27;13.00;;;;;;;2.89;100.00;99723.34;5072932;28;20101;-74
2022/02/01 08:31:49;;;;;;;23.25;13.00;;;;;;;2.96;100.00;99723.97;5072961;28;20048;-71
2022/02/01 08:34:19;;;;;;;25.42;13.95;;;;;;;2.94;100.00;99728.47;5072564;28;20040;-72
2022/02/01 08:36:48;;;;;;;22.60;13.20;;;;;;;3.22;100.00;99721.22;5073025;28;20036;-71
2022/02/01 08:39:17;;;;;;;28.63;13.90;;;;;;;3.34;100.00;99733.06;5074385;28;20046;-76
2022/02/01 08:41:45;;;;;;;24.50;13.15;;;;;;;3.16;100.00;99737.25;5079667;28;20043;-71
2022/02/01 08:44:16;;;;;;;22.20;12.95;;;;;;;3.26;100.00;99746.53;5079756;28;20127;-72
2022/02/01 08:46:45;;;;;;;25.98;13.18;;;;;;;3.26;100.00;99749.16;5079731;28;20045;-71
2022/02/01 08:49:13;;;;;;;28.23;14.27;;;;;;;3.31;100.00;99757.78;5079702;28;20049;-70
2022/02/01 08:51:45;;;;;;;22.98;11.70;;;;;;;3.33;100.00;99757.72;5079061;28;20434;-71
2022/02/01 08:54:19;;;;;;;21.42;12.18;;;;;;;3.18;100.00;99756.50;5079685;28;20044;-71
2022/02/01 08:59:35;;;;;;;24.90;12.32;;;;;;;3.35;100.00;99771.69;5079684;28;20071;-71
2022/02/01 09:02:05;;;;;;;21.40;12.32;;;;;;;3.33;100.00;99782.28;5079697;28;20117;-71
2022/02/01 09:04:33;;;;;;;27.77;14.23;;;;;;;3.28;100.00;99784.25;5079374;28;20037;-71
2022/02/01 09:07:04;;;;;;;21.42;12.05;;;;;;;3.23;100.00;99790.63;5079293;28;20041;-71
2022/02/01 09:09:33;;;;;;;28.33;13.00;;;;;;;3.41;100.00;99782.00;5079380;28;20037;-70
2022/02/01 09:12:01;;;;;;;22.98;12.27;;;;;;;3.50;100.00;99783.44;5079505;28;20044;-71
2022/02/01 09:14:30;;;;;;;22.80;12.80;;;;;;;3.50;100.00;99784.28;5079260;28;20478;-70
2022/02/01 09:17:00;;;;;;;22.33;11.95;;;;;;;3.57;100.00;99769.06;5079612;28;20374;-71
2022/02/01 09:19:29;;;;;;;22.23;12.02;;;;;;;3.59;100.00;99775.16;5079026;28;20036;-70
2022/02/01 09:21:58;;;;;;;21.58;11.35;;;;;;;3.68;100.00;99772.16;5079373;28;20078;-72
2022/02/01 09:24:29;;;;;;;20.33;11.55;;;;;;;3.77;100.00;99787.63;5078991;28;20055;-72
2022/02/01 09:26:58;;;;;;;22.33;11.30;;;;;;;3.82;100.00;99790.06;5079035;28;20481;-71
2022/02/01 09:29:26;;;;;;;21.45;10.18;;;;;;;3.61;100.00;99783.88;5079044;28;20064;-72
2022/02/01 09:31:56;;;;;;;18.90;9.98;;;;;;;3.69;100.00;99784.44;5078603;28;20076;-70
2022/02/01 09:34:24;;;;;;;18.10;9.65;;;;;;;3.62;100.00;99783.81;5078986;28;20128;-72
2022/02/01 09:36:55;;;;;;;18.65;9.90;;;;;;;3.65;100.00;99777.53;5079496;28;20123;-70
2022/02/01 09:39:25;;;;;;;21.17;9.45;;;;;;;3.73;100.00;99767.56;5079086;28;20082;-71
2022/02/01 09:41:56;;;;;;;17.42;8.93;;;;;;;3.81;100.00;99783.94;5079003;28;20041;-70
2022/02/01 09:44:25;;;;;;;15.38;8.27;;;;;;;3.85;100.00;99777.59;5079048;28;20105;-72
2022/02/01 09:46:54;;;;;;;18.27;8.93;;;;;;;3.93;100.00;99772.88;5079153;28;20075;-71
2022/02/01 09:49:24;;;;;;;13.77;8.13;;;;;;;4.08;100.00;99779.34;5079107;28;20066;-72
2022/02/01 09:51:54;;;;;;;17.10;7.95;;;;;;;4.07;100.00;99774.97;5076351;28;20040;-71
2022/02/01 09:54:24;;;;;;;15.77;6.53;;;;;;;4.12;100.00;99783.56;5075533;28;20465;-71
2022/02/01 09:56:55;;;;;;;13.50;5.95;;;;;;;3.96;100.00;99778.06;5075831;28;20044;-71
2022/02/01 09:59:30;;;;;;;12.55;5.80;;;;;;;4.02;100.00;99777.78;5075768;28;20052;-77
2022/02/01 10:02:06;;;;;;;17.52;6.40;;;;;;;4.14;100.00;99772.94;5075862;28;20044;-71
2022/02/01 10:04:35;;;;;;;14.43;5.88;;;;;;;4.12;100.00;99785.34;5075551;28;20532;-72
2022/02/01 10:07:09;;;;;;;13.85;6.35;;;;;;;4.05;100.00;99775.94;5075627;28;20041;-72
2022/02/01 10:09:49;;;;;;;16.33;6.40;;;;;;;4.15;100.00;99782.56;5075348;28;20048;-72
2022/02/01 10:12:20;;;;;;;15.10;5.82;;;;;;;4.18;100.00;99798.28;5075697;28;20041;-72
2022/02/01 10:14:55;;;;;;;13.90;5.65;;;;;;;4.29;100.00;99785.50;5075184;28;20123;-71
2022/02/01 10:17:28;;;;;;;17.17;6.32;;;;;;;4.42;100.00;99794.63;5074512;28;20143;-72
2022/02/01 10:19:57;;;;;;;16.60;5.90;;;;;;;4.46;100.00;99795.38;5075527;28;20109;-72
2022/02/01 10:22:32;;;;;;;10.27;5.07;;;;;;;4.54;98.12;99801.19;5075811;28;20049;-72
2022/02/01 10:25:03;;;;;;;13.88;5.15;;;;;;;4.54;96.64;99814.38;5075285;28;20040;-71
2022/02/01 10:27:37;;;;;;;13.32;5.43;;;;;;;4.63;96.66;99790.19;5075343;28;20044;-72
2022/02/01 10:30:11;;;;;;;12.77;5.45;;;;;;;4.67;96.24;99812.06;5075407;28;20036;-71
2022/02/01 10:33:12;;;;;;;12.05;5.32;;;;;;;4.91;95.40;99795.13;5074721;28;20382;-71
2022/02/01 10:35:55;;;;;;;12.60;5.57;;;;;;;4.99;93.83;99782.44;5074995;28;20109;-71
2022/02/01 10:38:30;;;;;;;;;;;;;;;5.02;94.36;99789.38;5075734;28;20098;-71
2022/02/01 10:40:59;;;;;;;13.27;5.35;;;;;;;4.89;89.79;99791.72;5074897;28;20038;-71
2022/02/01 10:43:34;;;;;;;12.55;4.15;;;;;;;5.04;82.76;99787.53;5074885;28;20405;-72
2022/02/01 10:46:09;;;;;;;9.60;4.20;;;;;;;4.93;80.73;99790.66;5074990;28;20051;-70
2022/02/01 10:48:39;;;;;;;10.15;4.38;;;;;;;4.99;79.72;99787.72;5074651;28;20090;-71
2022/02/01 10:51:12;;;;;;;13.00;4.50;;;;;;;5.07;78.81;99796.19;5074835;28;20044;-71
2022/02/01 10:53:43;;;;;;;11.80;4.72;;;;;;;5.22;78.70;99804.38;5074511;28;20041;-71
2022/02/01 10:56:13;;;;;;;11.27;5.07;;;;;;;5.10;78.71;99800.47;5075144;28;20105;-71
2022/02/01 10:58:44;;;;;;;10.38;4.45;;;;;;;5.12;77.69;99802.13;5074332;28;20123;-72
2022/02/01 11:01:14;;;;;;;10.18;4.20;;;;;;;5.03;78.11;99804.31;5074648;28;20440;-71
2022/02/01 11:03:45;;;;;;;12.60;4.78;;;;;;;5.14;77.86;99808.19;5073056;28;20044;-71
2022/02/01 11:06:15;;;;;;;11.57;4.50;;;;;;;4.89;78.00;99808.41;5074668;28;20044;-72
2022/02/01 11:08:46;;;;;;;12.90;4.70;;;;;;;4.83;78.02;99802.56;5074274;28;20067;-72
2022/02/01 11:11:22;;;;;;;11.02;4.28;;;;;;;4.70;78.27;99791.66;5074516;28;20036;-70
2022/02/01 11:13:52;;;;;;;12.82;4.88;;;;;;;4.68;78.41;99792.66;5073897;28;20078;-71
2022/02/01 11:16:22;;;;;;;12.80;5.13;;;;;;;4.76;79.12;99806.41;5074144;28;20064;-71
2022/02/01 11:18:57;;;;;;;12.90;5.38;;;;;;;4.67;79.92;99798.88;5074100;28;20549;-72
2022/02/01 11:21:26;;;;;;;14.73;5.60;;;;;;;4.69;79.92;99807.56;5073972;28;20044;-72
2022/02/01 11:23:59;;;;;;;14.32;5.68;;;;;;;4.63;80.95;99790.19;5074053;28;20047;-71
2022/02/01 11:26:32;;;;;;;15.13;5.50;;;;;;;4.76;80.33;99801.09;5074324;28;20123;-71
2022/02/01 11:31:47;;;;;;;14.18;5.50;;;;;;;4.79;80.11;99806.25;5068812;28;20297;-72
2022/02/01 11:34:18;;;;;;;8.65;4.20;;;;;;;4.60;78.94;99796.47;5073850;28;20086;-72
2022/02/01 11:36:47;;;;;;;10.45;4.43;;;;;;;4.60;77.11;99807.03;5072440;28;20474;-72
2022/02/01 11:39:17;;;;;;;10.55;4.00;;;;;;;4.58;77.24;99800.13;5073771;28;20051;-71
2022/02/01 11:41:47;;;;;;;8.90;4.05;;;;;;;4.64;77.62;99785.81;5073375;28;20050;-71
2022/02/01 11:44:25;;;;;;;13.63;3.95;;;;;;;4.66;76.86;99781.31;5073585;28;20056;-70
2022/02/01 11:47:08;;;;;;;9.77;4.20;;;;;;;4.65;77.55;99774.31;5073274;28;20098;-70
2022/02/01 11:49:38;;;;;;;9.57;3.75;;;;;;;4.57;77.82;99775.47;5073627;28;20044;-72
2022/02/01 11:52:09;;;;;;;10.07;3.90;;;;;;;4.57;77.48;99753.50;5073318;28;20405;-72
2022/02/01 11:54:38;;;;;;;10.25;4.00;;;;;;;4.55;78.41;99766.78;5073302;28;20547;-72
2022/02/01 11:57:18;;;;;;;10.18;4.00;;;;;;;4.55;79.28;99761.50;5073619;28;20040;-72
2022/02/01 11:59:53;;;;;;;9.45;4.07;;;;;;;4.64;78.39;99748.81;5073145;28;20062;-70
2022/02/01 12:02:34;;;;;;;10.57;3.45;;;;;;;4.51;76.01;99783.66;5073668;28;20051;-71
2022/02/01 12:05:13;;;;;;;12.07;3.85;;;;;;;4.50;74.17;99775.81;5073427;28;20072;-71
2022/02/01 12:07:50;;;;;;;8.02;3.28;;;;;;;4.59;73.51;99765.69;5073411;28;20421;-72
2022/02/01 12:10:19;;;;;;;9.77;3.47;;;;;;;4.61;72.92;99770.91;5073475;28;20040;-71
2022/02/01 12:12:57;;;;;;;11.02;4.25;;;;;;;4.73;73.83;99766.88;5073225;28;20036;-72
2022/02/01 12:15:35;;;;;;;8.90;3.83;;;;;;;4.84;73.96;99767.28;5072083;28;20052;-71
2022/02/01 12:18:14;;;;;;;10.10;3.95;;;;;;;4.75;74.50;99767.69;5073537;28;20040;-70
2022/02/01 12:20:44;;;;;;;11.43;4.35;;;;;;;4.74;74.30;99771.25;5073110;28;20430;-71
2022/02/01 12:23:22;;;;;;;10.75;3.80;;;;;;;4.65;73.91;99771.66;5073305;28;20075;-70
2022/02/01 12:25:51;;;;;;;11.20;3.95;;;;;;;4.56;74.02;99772.91;5073109;28;20466;-72
2022/02/01 12:28:21;;;;;;;12.63;4.55;;;;;;;4.50;74.03;99779.31;5073327;28;20052;-71
2022/02/01 12:30:53;;;;;;;12.32;4.90;;;;;;;4.51;74.71;99773.09;5073139;28;20048;-72
2022/02/01 12:33:23;;;;;;;11.13;4.30;;;;;;;4.48;75.09;99759.19;5072880;28;20045;-71
2022/02/01 12:35:53;;;;;;;9.63;3.63;;;;;;;4.56;75.34;99773.78;5071628;28;20059;-72
2022/02/01 12:38:24;;;;;;;10.45;3.75;;;;;;;4.54;74.64;99780.06;5073017;28;20040;-70
2022/02/01 12:40:58;;;;;;;8.75;3.63;;;;;;;4.63;74.45;99779.63;5072635;28;20075;-72
2022/02/01 12:43:29;;;;;;;;;;;;;;;4.65;74.03;99819.22;5073426;28;20486;-72
2022/02/01 12:46:06;;;;;;;7.85;3.38;;;;;;;4.55;75.08;99782.63;5072894;28;20354;-72